createdAt,value
2023-03-27T00:02:46.980Z,4.46
2023-03-27T00:07:49.751Z,4.37
2023-03-27T00:12:52.105Z,4.35
2023-03-27T00:17:55.393Z,4.30
2023-03-27T00:22:58.613Z,4.21
2023-03-27T00:28:01.820Z,4.23
2023-03-27T00:33:05.158Z,4.34
2023-03-27T00:38:09.544Z,4.38
2023-03-27T00:43:12.487Z,4.56
2023-03-27T00:48:25.392Z,4.73
2023-03-27T00:53:28.913Z,4.82
2023-03-27T00:58:31.655Z,4.82
2023-03-27T01:03:34.932Z,4.79
2023-03-27T01:08:37.984Z,4.91
2023-03-27T01:13:40.337Z,4.82
2023-03-27T01:18:42.947Z,4.70
2023-03-27T01:23:58.904Z,4.50
2023-03-27T01:29:03.524Z,4.38
2023-03-27T01:34:06.528Z,4.20
2023-03-27T01:39:11.144Z,4.16
2023-03-27T01:44:13.717Z,4.00
2023-03-27T01:49:16.386Z,4.00
2023-03-27T01:54:19.144Z,4.03
2023-03-27T01:59:21.742Z,4.00
2023-03-27T02:04:24.491Z,4.06
2023-03-27T02:09:28.322Z,4.13
2023-03-27T02:14:30.661Z,4.23
2023-03-27T02:19:43.098Z,4.19
2023-03-27T02:24:46.343Z,4.16
2023-03-27T02:29:48.769Z,4.15
2023-03-27T02:35:01.077Z,4.04
2023-03-27T02:40:05.678Z,4.04
2023-03-27T02:45:08.366Z,3.98
2023-03-27T02:50:10.885Z,3.92
2023-03-27T02:55:14.247Z,3.82
2023-03-27T03:00:20.319Z,3.75
2023-03-27T03:05:32.704Z,3.65
2023-03-27T03:10:35.010Z,3.65
2023-03-27T03:15:39.114Z,3.69
2023-03-27T03:20:41.449Z,3.73
2023-03-27T03:25:44.698Z,3.69
2023-03-27T03:30:47.129Z,3.62
2023-03-27T03:35:50.331Z,3.63
2023-03-27T03:40:53.579Z,3.46
2023-03-27T03:45:56.458Z,3.35
2023-03-27T03:50:59.549Z,3.41
2023-03-27T03:56:04.418Z,3.32
2023-03-27T04:01:06.837Z,3.30
2023-03-27T04:06:10.854Z,3.15
2023-03-27T04:11:23.221Z,3.07
2023-03-27T04:16:25.624Z,3.04
2023-03-27T04:21:28.191Z,3.08
2023-03-27T04:26:30.565Z,3.21
2023-03-27T04:31:34.611Z,3.32
2023-03-27T04:36:37.521Z,3.33
2023-03-27T04:41:39.821Z,3.31
2023-03-27T04:46:42.448Z,3.23
2023-03-27T04:51:45.648Z,3.04
2023-03-27T04:56:48.096Z,2.92
2023-03-27T05:01:51.737Z,2.98
2023-03-27T05:06:54.846Z,2.90
2023-03-27T05:11:57.204Z,2.87
2023-03-27T05:17:00.938Z,2.86
2023-03-27T05:22:03.298Z,2.84
2023-03-27T05:27:05.835Z,2.69
2023-03-27T05:32:08.224Z,2.51
2023-03-27T05:37:11.104Z,2.58
2023-03-27T05:42:23.572Z,2.55
2023-03-27T05:47:26.212Z,2.44
2023-03-27T05:52:28.964Z,2.39
2023-03-27T05:57:32.267Z,2.38
2023-03-27T06:02:35.137Z,2.26
2023-03-27T06:07:39.043Z,2.26
2023-03-27T06:12:42.844Z,2.08
2023-03-27T06:17:45.369Z,1.84
2023-03-27T06:22:47.838Z,2.17
2023-03-27T06:27:50.488Z,2.00
2023-03-27T06:32:54.094Z,1.85
2023-03-27T06:37:59.029Z,1.73
2023-03-27T06:43:01.691Z,1.54
2023-03-27T06:48:16.073Z,1.66
2023-03-27T06:53:27.884Z,1.51
2023-03-27T06:58:31.465Z,1.45
2023-03-27T07:03:33.873Z,1.61
2023-03-27T07:08:36.589Z,1.58
2023-03-27T07:13:39.033Z,1.55
2023-03-27T07:18:42.259Z,1.47
2023-03-27T07:23:45.604Z,1.43
2023-03-27T07:28:48.054Z,1.35
2023-03-27T07:33:51.386Z,1.39
2023-03-27T07:38:53.800Z,1.45
2023-03-27T07:43:56.348Z,1.49
2023-03-27T07:48:59.601Z,1.30
2023-03-27T07:54:04.325Z,1.04
2023-03-27T07:59:07.024Z,0.97
2023-03-27T08:04:10.393Z,1.00
2023-03-27T08:09:13.033Z,1.02
2023-03-27T08:14:15.374Z,1.07
2023-03-27T08:19:18.631Z,1.65
2023-03-27T08:24:21.179Z,1.87
2023-03-27T08:29:24.921Z,2.48
2023-03-27T08:34:29.388Z,2.95
2023-03-27T08:39:32.216Z,2.72
2023-03-27T08:44:34.980Z,2.55
2023-03-27T08:49:37.287Z,2.23
2023-03-27T08:54:39.667Z,1.98
2023-03-27T08:59:42.087Z,1.76
2023-03-27T09:04:44.797Z,1.82
2023-03-27T09:09:47.800Z,1.68
2023-03-27T09:14:53.299Z,1.73
2023-03-27T09:19:55.913Z,1.77
2023-03-27T09:24:58.514Z,2.03
2023-03-27T09:30:11.724Z,1.99
2023-03-27T09:35:14.638Z,2.07
2023-03-27T09:40:17.786Z,2.41
2023-03-27T09:45:20.110Z,2.56
2023-03-27T09:50:23.803Z,2.33
2023-03-27T09:55:27.293Z,2.57
2023-03-27T10:00:30.869Z,2.69
2023-03-27T10:05:33.806Z,2.86
2023-03-27T10:10:42.544Z,3.51
2023-03-27T10:15:45.025Z,3.67
2023-03-27T10:20:57.618Z,4.12
2023-03-27T10:26:01.016Z,4.09
2023-03-27T10:31:04.628Z,4.51
2023-03-27T10:36:07.043Z,4.04
2023-03-27T10:41:12.602Z,3.63
2023-03-27T10:46:15.147Z,4.09
2023-03-27T10:51:17.511Z,3.89
2023-03-27T10:56:20.270Z,4.19
2023-03-27T11:01:34.772Z,3.65
2023-03-27T11:06:37.880Z,3.51
2023-03-27T11:11:40.400Z,3.43
2023-03-27T11:16:44.352Z,3.33
2023-03-27T11:21:47.358Z,4.05
2023-03-27T11:26:50.717Z,4.29
2023-03-27T11:31:54.000Z,4.41
2023-03-27T11:36:57.811Z,3.98
2023-03-27T11:42:01.000Z,4.34
2023-03-27T11:47:03.740Z,5.03
2023-03-27T11:52:06.193Z,5.82
2023-03-27T11:57:09.423Z,4.96
2023-03-27T12:02:11.997Z,4.50
2023-03-27T12:07:16.972Z,3.90
2023-03-27T12:12:32.217Z,4.02
2023-03-27T12:17:44.649Z,4.36
2023-03-27T12:22:49.077Z,5.05
2023-03-27T12:27:53.471Z,5.13
2023-03-27T12:32:58.936Z,4.63
2023-03-27T12:38:03.155Z,4.43
2023-03-27T12:43:05.869Z,4.09
2023-03-27T12:48:09.980Z,4.24
2023-03-27T12:53:13.340Z,4.69
2023-03-27T12:58:15.752Z,4.41
2023-03-27T13:03:18.272Z,4.41
2023-03-27T13:08:21.370Z,4.17
2023-03-27T13:13:24.094Z,4.32
2023-03-27T13:18:26.385Z,4.02
2023-03-27T13:23:28.967Z,3.84
2023-03-27T13:28:35.748Z,3.82
2023-03-27T13:33:38.373Z,4.26
2023-03-27T13:38:42.364Z,4.17
2023-03-27T13:43:45.520Z,4.45
2023-03-27T13:48:50.650Z,4.67
2023-03-27T13:53:54.090Z,5.26
2023-03-27T13:58:57.096Z,4.96
2023-03-27T14:04:00.384Z,4.70
2023-03-27T14:09:06.170Z,4.17
2023-03-27T14:14:09.761Z,3.65
2023-03-27T14:19:12.224Z,3.82
2023-03-27T14:24:14.942Z,3.66
2023-03-27T14:29:21.094Z,2.75
2023-03-27T14:34:24.561Z,2.78
2023-03-27T14:39:28.300Z,2.98
2023-03-27T14:44:30.942Z,3.41
2023-03-27T14:49:35.835Z,3.67
2023-03-27T14:54:52.198Z,3.80
2023-03-27T14:59:57.326Z,3.69
2023-03-27T15:05:00.975Z,3.44
2023-03-27T15:10:04.496Z,3.71
2023-03-27T15:15:06.894Z,4.12
2023-03-27T15:20:14.549Z,4.12
2023-03-27T15:25:19.581Z,3.73
2023-03-27T15:30:23.318Z,3.52
2023-03-27T15:35:27.058Z,3.45
2023-03-27T15:40:36.694Z,3.40
2023-03-27T15:45:40.072Z,3.31
2023-03-27T15:50:43.815Z,3.49
2023-03-27T15:55:47.723Z,3.65
2023-03-27T16:00:50.121Z,3.72
2023-03-27T16:05:53.098Z,3.99
2023-03-27T16:10:55.984Z,3.85
2023-03-27T16:15:59.338Z,3.46
2023-03-27T16:21:06.720Z,3.17
2023-03-27T16:26:10.918Z,3.05
2023-03-27T16:31:23.510Z,3.02
2023-03-27T16:36:26.669Z,3.18
2023-03-27T16:41:29.044Z,3.20
2023-03-27T16:46:32.286Z,2.18
2023-03-27T16:51:35.783Z,1.07
2023-03-27T16:56:39.095Z,0.84
2023-03-27T17:01:41.536Z,0.74
2023-03-27T17:06:44.616Z,0.71
2023-03-27T17:11:47.340Z,0.70
2023-03-27T17:16:51.288Z,0.58
2023-03-27T17:21:53.697Z,0.51
2023-03-27T17:27:06.111Z,0.53
2023-03-27T17:32:09.358Z,0.57
2023-03-27T17:37:12.520Z,0.68
2023-03-27T17:42:15.562Z,0.80
2023-03-27T17:47:27.931Z,0.88
2023-03-27T17:52:31.656Z,0.81
2023-03-27T17:57:47.358Z,0.44
2023-03-27T18:02:51.748Z,0.37
2023-03-27T18:07:54.184Z,0.24
2023-03-27T18:12:56.628Z,0.20
2023-03-27T18:17:59.763Z,0.31
2023-03-27T18:23:02.245Z,0.44
2023-03-27T18:28:04.659Z,0.49
2023-03-27T18:33:07.093Z,0.60
2023-03-27T18:38:11.442Z,0.85
2023-03-27T18:43:13.972Z,0.45
2023-03-27T18:48:18.251Z,0.14
2023-03-27T18:53:21.173Z,-0.03
2023-03-27T18:58:26.528Z,0.03
2023-03-27T19:03:34.710Z,0.09
2023-03-27T19:08:38.500Z,0.21
2023-03-27T19:13:41.207Z,0.19
2023-03-27T19:18:44.352Z,0.18
2023-03-27T19:23:47.094Z,0.22
2023-03-27T19:28:49.426Z,0.16
2023-03-27T19:33:52.114Z,0.07
2023-03-27T19:38:56.543Z,0.01
2023-03-27T19:44:00.341Z,-0.05
2023-03-27T19:49:04.329Z,-0.04
2023-03-27T19:54:07.458Z,-0.16
2023-03-27T19:59:15.317Z,-0.18
2023-03-27T20:04:27.694Z,-0.27
2023-03-27T20:09:30.287Z,-0.28
2023-03-27T20:14:33.245Z,-0.35
2023-03-27T20:19:35.663Z,-0.37
2023-03-27T20:24:40.190Z,-0.48
2023-03-27T20:29:42.592Z,-0.41
2023-03-27T20:34:48.850Z,-0.43
2023-03-27T20:39:51.947Z,-0.45
2023-03-27T20:44:58.074Z,-0.44
2023-03-27T20:50:03.092Z,-0.51
2023-03-27T20:55:05.448Z,-0.49
2023-03-27T21:00:08.081Z,-0.55
2023-03-27T21:05:11.256Z,-0.46
2023-03-27T21:10:13.654Z,-0.40
2023-03-27T21:15:16.422Z,-0.40
2023-03-27T21:20:18.807Z,-0.50
2023-03-27T21:25:21.930Z,-0.51
2023-03-27T21:30:24.579Z,-0.53
2023-03-27T21:35:47.421Z,-0.56
2023-03-27T21:40:50.734Z,-0.56
2023-03-27T21:45:53.201Z,-0.57
2023-03-27T21:50:55.511Z,-0.48
2023-03-27T21:55:58.471Z,-0.50
2023-03-27T22:01:01.247Z,-0.50
2023-03-27T22:06:11.510Z,-0.60
2023-03-27T22:11:16.071Z,-0.58
2023-03-27T22:16:18.981Z,-0.62
2023-03-27T22:21:22.807Z,-0.55
2023-03-27T22:26:26.208Z,-0.70
2023-03-27T22:31:29.497Z,-0.68
2023-03-27T22:36:32.186Z,-0.71
2023-03-27T22:41:34.821Z,-0.68
2023-03-27T22:46:37.689Z,-0.71
2023-03-27T22:51:41.013Z,-0.72
2023-03-27T22:56:43.452Z,-0.73
2023-03-27T23:01:45.950Z,-0.60
2023-03-27T23:06:56.358Z,-0.40
2023-03-27T23:11:58.751Z,-0.29
2023-03-27T23:17:01.480Z,-0.35
2023-03-27T23:22:03.806Z,-0.36
2023-03-27T23:27:08.562Z,-0.26
2023-03-27T23:32:11.007Z,-0.30
2023-03-27T23:37:16.016Z,-0.34
2023-03-27T23:42:19.340Z,-0.17
2023-03-27T23:47:21.650Z,-0.24
2023-03-27T23:52:24.788Z,-0.37
2023-03-27T23:57:27.340Z,-0.39
